sensor_id;sensor_type;location;lat;lon;timestamp;P1;durP1;ratioP1;P2;durP2;ratioP2
12312;SDS011;6220;53.580;9.758;2023-03-14T00:01:48;9.50;;;3.20;;
12312;SDS011;6220;53.580;9.758;2023-03-14T00:04:15;9.03;;;2.90;;
12312;SDS011;6220;53.580;9.758;2023-03-14T00:06:40;6.23;;;3.10;;
12312;SDS011;6220;53.580;9.758;2023-03-14T00:09:09;8.83;;;3.23;;
12312;SDS011;6220;53.580;9.758;2023-03-14T00:11:34;6.30;;;3.53;;
12312;SDS011;6220;53.580;9.758;2023-03-14T00:14:01;7.27;;;3.10;;
12312;SDS011;6220;53.580;9.758;2023-03-14T00:16:27;5.67;;;3.40;;
12312;SDS011;6220;53.580;9.758;2023-03-14T00:18:53;7.60;;;3.03;;
12312;SDS011;6220;53.580;9.758;2023-03-14T00:21:19;8.90;;;3.73;;
12312;SDS011;6220;53.580;9.758;2023-03-14T00:23:45;6.53;;;4.03;;
12312;SDS011;6220;53.580;9.758;2023-03-14T00:26:14;6.33;;;3.40;;
12312;SDS011;6220;53.580;9.758;2023-03-14T00:28:41;10.10;;;3.57;;
12312;SDS011;6220;53.580;9.758;2023-03-14T00:31:07;9.43;;;3.53;;
12312;SDS011;6220;53.580;9.758;2023-03-14T00:33:34;8.53;;;4.77;;
12312;SDS011;6220;53.580;9.758;2023-03-14T00:36:04;10.87;;;3.87;;
12312;SDS011;6220;53.580;9.758;2023-03-14T00:38:52;11.60;;;4.17;;
12312;SDS011;6220;53.580;9.758;2023-03-14T00:41:19;6.53;;;3.70;;
12312;SDS011;6220;53.580;9.758;2023-03-14T00:43:47;13.27;;;3.73;;
12312;SDS011;6220;53.580;9.758;2023-03-14T00:46:12;8.53;;;3.13;;
12312;SDS011;6220;53.580;9.758;2023-03-14T00:48:38;10.80;;;3.77;;
12312;SDS011;6220;53.580;9.758;2023-03-14T00:51:04;8.47;;;2.97;;
12312;SDS011;6220;53.580;9.758;2023-03-14T00:53:30;11.60;;;3.60;;
12312;SDS011;6220;53.580;9.758;2023-03-14T00:55:57;8.43;;;3.03;;
12312;SDS011;6220;53.580;9.758;2023-03-14T00:58:24;10.67;;;3.30;;
12312;SDS011;6220;53.580;9.758;2023-03-14T01:00:49;8.57;;;3.60;;
12312;SDS011;6220;53.580;9.758;2023-03-14T01:03:15;9.33;;;3.00;;
12312;SDS011;6220;53.580;9.758;2023-03-14T01:05:40;7.90;;;3.37;;
12312;SDS011;6220;53.580;9.758;2023-03-14T01:08:07;9.80;;;3.30;;
12312;SDS011;6220;53.580;9.758;2023-03-14T01:10:33;7.90;;;3.47;;
12312;SDS011;6220;53.580;9.758;2023-03-14T01:13:00;6.93;;;3.00;;
12312;SDS011;6220;53.580;9.758;2023-03-14T01:15:26;10.73;;;3.83;;
12312;SDS011;6220;53.580;9.758;2023-03-14T01:17:51;8.07;;;3.07;;
12312;SDS011;6220;53.580;9.758;2023-03-14T01:20:17;8.17;;;3.63;;
12312;SDS011;6220;53.580;9.758;2023-03-14T01:22:43;6.27;;;3.20;;
12312;SDS011;6220;53.580;9.758;2023-03-14T01:25:10;10.57;;;3.73;;
12312;SDS011;6220;53.580;9.758;2023-03-14T01:27:37;7.17;;;3.23;;
12312;SDS011;6220;53.580;9.758;2023-03-14T01:30:03;12.67;;;3.07;;
12312;SDS011;6220;53.580;9.758;2023-03-14T01:32:31;7.93;;;3.60;;
12312;SDS011;6220;53.580;9.758;2023-03-14T01:34:58;8.10;;;3.67;;
12312;SDS011;6220;53.580;9.758;2023-03-14T01:37:23;8.00;;;3.37;;
12312;SDS011;6220;53.580;9.758;2023-03-14T01:39:49;8.37;;;2.97;;
12312;SDS011;6220;53.580;9.758;2023-03-14T01:42:14;10.30;;;3.30;;
12312;SDS011;6220;53.580;9.758;2023-03-14T01:45:52;9.00;;;3.60;;
12312;SDS011;6220;53.580;9.758;2023-03-14T01:47:51;8.67;;;3.37;;
12312;SDS011;6220;53.580;9.758;2023-03-14T01:50:17;6.97;;;3.43;;
12312;SDS011;6220;53.580;9.758;2023-03-14T01:52:43;7.43;;;3.20;;
12312;SDS011;6220;53.580;9.758;2023-03-14T01:55:15;7.30;;;3.30;;
12312;SDS011;6220;53.580;9.758;2023-03-14T01:57:47;7.53;;;3.73;;
12312;SDS011;6220;53.580;9.758;2023-03-14T02:00:17;9.90;;;3.60;;
12312;SDS011;6220;53.580;9.758;2023-03-14T02:02:44;6.93;;;3.20;;
12312;SDS011;6220;53.580;9.758;2023-03-14T02:05:14;7.40;;;3.67;;
12312;SDS011;6220;53.580;9.758;2023-03-14T02:07:51;9.40;;;3.60;;
12312;SDS011;6220;53.580;9.758;2023-03-14T02:10:21;7.23;;;3.53;;
12312;SDS011;6220;53.580;9.758;2023-03-14T02:12:49;10.07;;;3.83;;
12312;SDS011;6220;53.580;9.758;2023-03-14T02:15:16;7.87;;;3.73;;
12312;SDS011;6220;53.580;9.758;2023-03-14T02:17:42;7.37;;;3.20;;
12312;SDS011;6220;53.580;9.758;2023-03-14T02:22:40;8.00;;;3.70;;
12312;SDS011;6220;53.580;9.758;2023-03-14T02:27:40;7.43;;;3.50;;
12312;SDS011;6220;53.580;9.758;2023-03-14T02:32:37;9.43;;;3.73;;
12312;SDS011;6220;53.580;9.758;2023-03-14T02:35:06;5.57;;;3.30;;
12312;SDS011;6220;53.580;9.758;2023-03-14T02:37:38;7.47;;;3.63;;
12312;SDS011;6220;53.580;9.758;2023-03-14T02:40:11;5.80;;;3.40;;
12312;SDS011;6220;53.580;9.758;2023-03-14T02:42:37;11.10;;;3.90;;
12312;SDS011;6220;53.580;9.758;2023-03-14T02:47:34;8.83;;;3.60;;
12312;SDS011;6220;53.580;9.758;2023-03-14T02:50:04;6.50;;;3.37;;
12312;SDS011;6220;53.580;9.758;2023-03-14T02:52:38;6.67;;;3.57;;
12312;SDS011;6220;53.580;9.758;2023-03-14T02:55:04;8.67;;;3.70;;
12312;SDS011;6220;53.580;9.758;2023-03-14T02:57:30;9.57;;;3.83;;
12312;SDS011;6220;53.580;9.758;2023-03-14T02:59:58;9.77;;;3.93;;
12312;SDS011;6220;53.580;9.758;2023-03-14T03:02:24;8.53;;;3.87;;
12312;SDS011;6220;53.580;9.758;2023-03-14T03:04:50;8.17;;;3.80;;
12312;SDS011;6220;53.580;9.758;2023-03-14T03:07:16;9.53;;;3.70;;
12312;SDS011;6220;53.580;9.758;2023-03-14T03:09:41;8.53;;;3.60;;
12312;SDS011;6220;53.580;9.758;2023-03-14T03:12:07;8.97;;;4.17;;
12312;SDS011;6220;53.580;9.758;2023-03-14T03:14:32;8.57;;;4.10;;
12312;SDS011;6220;53.580;9.758;2023-03-14T03:16:58;10.43;;;4.37;;
12312;SDS011;6220;53.580;9.758;2023-03-14T03:19:23;10.70;;;4.07;;
12312;SDS011;6220;53.580;9.758;2023-03-14T03:21:48;8.07;;;3.80;;
12312;SDS011;6220;53.580;9.758;2023-03-14T03:24:14;9.33;;;4.47;;
12312;SDS011;6220;53.580;9.758;2023-03-14T03:26:40;6.83;;;4.23;;
12312;SDS011;6220;53.580;9.758;2023-03-14T03:29:06;9.90;;;4.20;;
12312;SDS011;6220;53.580;9.758;2023-03-14T03:31:31;5.60;;;3.20;;
12312;SDS011;6220;53.580;9.758;2023-03-14T03:33:57;9.40;;;3.90;;
12312;SDS011;6220;53.580;9.758;2023-03-14T03:36:24;8.37;;;3.60;;
12312;SDS011;6220;53.580;9.758;2023-03-14T03:38:51;6.83;;;3.23;;
12312;SDS011;6220;53.580;9.758;2023-03-14T03:41:17;7.17;;;3.50;;
12312;SDS011;6220;53.580;9.758;2023-03-14T03:43:42;7.07;;;3.50;;
12312;SDS011;6220;53.580;9.758;2023-03-14T03:46:08;7.57;;;3.63;;
12312;SDS011;6220;53.580;9.758;2023-03-14T03:48:34;6.07;;;3.07;;
12312;SDS011;6220;53.580;9.758;2023-03-14T03:51:00;7.27;;;3.30;;
12312;SDS011;6220;53.580;9.758;2023-03-14T03:53:26;7.63;;;3.27;;
12312;SDS011;6220;53.580;9.758;2023-03-14T03:55:51;8.63;;;3.90;;
12312;SDS011;6220;53.580;9.758;2023-03-14T03:58:16;7.60;;;3.70;;
12312;SDS011;6220;53.580;9.758;2023-03-14T04:00:42;8.37;;;3.60;;
12312;SDS011;6220;53.580;9.758;2023-03-14T04:03:07;7.13;;;3.30;;
12312;SDS011;6220;53.580;9.758;2023-03-14T04:05:33;10.50;;;3.47;;
12312;SDS011;6220;53.580;9.758;2023-03-14T04:07:59;11.43;;;4.43;;
12312;SDS011;6220;53.580;9.758;2023-03-14T04:10:25;8.40;;;3.97;;
12312;SDS011;6220;53.580;9.758;2023-03-14T04:12:50;11.13;;;3.40;;
12312;SDS011;6220;53.580;9.758;2023-03-14T04:15:15;6.73;;;3.70;;
12312;SDS011;6220;53.580;9.758;2023-03-14T04:17:41;7.80;;;3.50;;
12312;SDS011;6220;53.580;9.758;2023-03-14T04:20:09;8.73;;;3.33;;
12312;SDS011;6220;53.580;9.758;2023-03-14T04:22:38;9.27;;;4.17;;
12312;SDS011;6220;53.580;9.758;2023-03-14T04:25:04;13.17;;;3.93;;
12312;SDS011;6220;53.580;9.758;2023-03-14T04:27:30;11.07;;;3.90;;
12312;SDS011;6220;53.580;9.758;2023-03-14T04:29:56;12.80;;;4.00;;
12312;SDS011;6220;53.580;9.758;2023-03-14T04:32:21;6.60;;;3.43;;
12312;SDS011;6220;53.580;9.758;2023-03-14T04:34:48;2.60;;;1.87;;
12312;SDS011;6220;53.580;9.758;2023-03-14T04:37:14;4.90;;;1.60;;
12312;SDS011;6220;53.580;9.758;2023-03-14T04:39:39;2.60;;;1.63;;
12312;SDS011;6220;53.580;9.758;2023-03-14T04:42:04;2.10;;;1.33;;
12312;SDS011;6220;53.580;9.758;2023-03-14T04:44:30;2.63;;;1.63;;
12312;SDS011;6220;53.580;9.758;2023-03-14T04:46:56;4.23;;;1.60;;
12312;SDS011;6220;53.580;9.758;2023-03-14T04:49:21;4.63;;;1.73;;
12312;SDS011;6220;53.580;9.758;2023-03-14T04:51:47;8.20;;;2.20;;
12312;SDS011;6220;53.580;9.758;2023-03-14T04:54:12;4.83;;;1.90;;
12312;SDS011;6220;53.580;9.758;2023-03-14T04:56:38;3.57;;;1.83;;
12312;SDS011;6220;53.580;9.758;2023-03-14T04:59:03;3.00;;;1.77;;
12312;SDS011;6220;53.580;9.758;2023-03-14T05:01:29;4.17;;;1.77;;
12312;SDS011;6220;53.580;9.758;2023-03-14T05:03:54;2.17;;;1.50;;
12312;SDS011;6220;53.580;9.758;2023-03-14T05:06:20;2.70;;;1.70;;
12312;SDS011;6220;53.580;9.758;2023-03-14T05:08:46;3.43;;;1.70;;
12312;SDS011;6220;53.580;9.758;2023-03-14T05:11:11;2.40;;;1.50;;
12312;SDS011;6220;53.580;9.758;2023-03-14T05:13:37;4.57;;;1.77;;
12312;SDS011;6220;53.580;9.758;2023-03-14T05:16:06;4.30;;;2.10;;
12312;SDS011;6220;53.580;9.758;2023-03-14T05:18:33;4.73;;;2.03;;
12312;SDS011;6220;53.580;9.758;2023-03-14T05:20:59;3.50;;;1.73;;
12312;SDS011;6220;53.580;9.758;2023-03-14T05:23:24;7.03;;;2.20;;
12312;SDS011;6220;53.580;9.758;2023-03-14T05:25:49;4.63;;;1.87;;
12312;SDS011;6220;53.580;9.758;2023-03-14T05:28:15;4.43;;;2.03;;
12312;SDS011;6220;53.580;9.758;2023-03-14T05:30:40;3.13;;;1.90;;
12312;SDS011;6220;53.580;9.758;2023-03-14T05:33:05;4.30;;;2.60;;
12312;SDS011;6220;53.580;9.758;2023-03-14T05:35:31;4.83;;;2.37;;
12312;SDS011;6220;53.580;9.758;2023-03-14T05:37:57;4.47;;;2.33;;
12312;SDS011;6220;53.580;9.758;2023-03-14T05:40:22;7.40;;;2.43;;
12312;SDS011;6220;53.580;9.758;2023-03-14T05:42:48;8.87;;;2.57;;
12312;SDS011;6220;53.580;9.758;2023-03-14T05:45:13;8.53;;;2.97;;
12312;SDS011;6220;53.580;9.758;2023-03-14T05:47:39;5.90;;;3.10;;
12312;SDS011;6220;53.580;9.758;2023-03-14T05:50:05;5.93;;;3.30;;
12312;SDS011;6220;53.580;9.758;2023-03-14T05:52:31;9.00;;;3.50;;
12312;SDS011;6220;53.580;9.758;2023-03-14T05:54:56;8.57;;;4.10;;
12312;SDS011;6220;53.580;9.758;2023-03-14T05:57:22;5.47;;;3.77;;
12312;SDS011;6220;53.580;9.758;2023-03-14T05:59:47;5.67;;;4.10;;
12312;SDS011;6220;53.580;9.758;2023-03-14T06:02:12;9.37;;;5.40;;
12312;SDS011;6220;53.580;9.758;2023-03-14T06:04:38;8.97;;;4.80;;
12312;SDS011;6220;53.580;9.758;2023-03-14T06:07:03;7.97;;;5.30;;
12312;SDS011;6220;53.580;9.758;2023-03-14T06:09:28;10.07;;;5.53;;
12312;SDS011;6220;53.580;9.758;2023-03-14T06:11:54;8.93;;;5.80;;
12312;SDS011;6220;53.580;9.758;2023-03-14T06:14:19;7.97;;;5.17;;
12312;SDS011;6220;53.580;9.758;2023-03-14T06:16:44;9.10;;;6.27;;
12312;SDS011;6220;53.580;9.758;2023-03-14T06:19:10;9.73;;;6.07;;
12312;SDS011;6220;53.580;9.758;2023-03-14T06:21:37;10.47;;;6.17;;
12312;SDS011;6220;53.580;9.758;2023-03-14T06:24:03;8.53;;;6.23;;
12312;SDS011;6220;53.580;9.758;2023-03-14T06:26:29;11.17;;;7.13;;
12312;SDS011;6220;53.580;9.758;2023-03-14T06:28:54;12.10;;;7.10;;
12312;SDS011;6220;53.580;9.758;2023-03-14T06:31:19;9.87;;;6.83;;
12312;SDS011;6220;53.580;9.758;2023-03-14T06:33:45;12.40;;;7.60;;
12312;SDS011;6220;53.580;9.758;2023-03-14T06:36:10;9.10;;;7.03;;
12312;SDS011;6220;53.580;9.758;2023-03-14T06:38:35;14.33;;;7.67;;
12312;SDS011;6220;53.580;9.758;2023-03-14T06:41:04;13.33;;;6.47;;
12312;SDS011;6220;53.580;9.758;2023-03-14T06:43:30;11.40;;;6.47;;
12312;SDS011;6220;53.580;9.758;2023-03-14T06:45:56;9.03;;;6.00;;
12312;SDS011;6220;53.580;9.758;2023-03-14T06:48:21;8.80;;;5.53;;
12312;SDS011;6220;53.580;9.758;2023-03-14T06:50:48;9.60;;;5.80;;
12312;SDS011;6220;53.580;9.758;2023-03-14T06:53:13;15.97;;;6.20;;
12312;SDS011;6220;53.580;9.758;2023-03-14T06:55:39;7.17;;;5.23;;
12312;SDS011;6220;53.580;9.758;2023-03-14T06:58:04;9.73;;;5.00;;
12312;SDS011;6220;53.580;9.758;2023-03-14T07:00:31;12.37;;;5.03;;
12312;SDS011;6220;53.580;9.758;2023-03-14T07:02:57;9.07;;;4.13;;
12312;SDS011;6220;53.580;9.758;2023-03-14T07:05:22;10.13;;;3.40;;
12312;SDS011;6220;53.580;9.758;2023-03-14T07:07:47;8.97;;;3.63;;
12312;SDS011;6220;53.580;9.758;2023-03-14T07:10:13;7.60;;;3.33;;
12312;SDS011;6220;53.580;9.758;2023-03-14T07:12:38;15.43;;;3.30;;
12312;SDS011;6220;53.580;9.758;2023-03-14T07:15:04;13.90;;;4.03;;
12312;SDS011;6220;53.580;9.758;2023-03-14T07:17:30;7.97;;;2.70;;
12312;SDS011;6220;53.580;9.758;2023-03-14T07:19:55;10.07;;;3.63;;
12312;SDS011;6220;53.580;9.758;2023-03-14T07:22:20;7.53;;;3.00;;
12312;SDS011;6220;53.580;9.758;2023-03-14T07:24:46;10.37;;;2.70;;
12312;SDS011;6220;53.580;9.758;2023-03-14T07:27:11;6.73;;;2.83;;
12312;SDS011;6220;53.580;9.758;2023-03-14T07:29:36;6.30;;;2.67;;
12312;SDS011;6220;53.580;9.758;2023-03-14T07:32:03;5.33;;;2.30;;
12312;SDS011;6220;53.580;9.758;2023-03-14T07:34:28;8.17;;;2.60;;
12312;SDS011;6220;53.580;9.758;2023-03-14T07:36:54;8.30;;;2.97;;
12312;SDS011;6220;53.580;9.758;2023-03-14T07:39:19;8.53;;;2.93;;
12312;SDS011;6220;53.580;9.758;2023-03-14T07:41:44;10.63;;;2.80;;
12312;SDS011;6220;53.580;9.758;2023-03-14T07:44:10;7.00;;;2.73;;
12312;SDS011;6220;53.580;9.758;2023-03-14T07:46:35;6.40;;;2.80;;
12312;SDS011;6220;53.580;9.758;2023-03-14T07:49:00;10.67;;;2.60;;
12312;SDS011;6220;53.580;9.758;2023-03-14T07:51:26;6.87;;;2.70;;
12312;SDS011;6220;53.580;9.758;2023-03-14T07:53:51;7.80;;;2.30;;
12312;SDS011;6220;53.580;9.758;2023-03-14T07:56:16;7.20;;;2.60;;
12312;SDS011;6220;53.580;9.758;2023-03-14T07:58:42;3.93;;;2.30;;
12312;SDS011;6220;53.580;9.758;2023-03-14T08:01:07;10.00;;;2.77;;
12312;SDS011;6220;53.580;9.758;2023-03-14T08:03:32;3.90;;;2.30;;
12312;SDS011;6220;53.580;9.758;2023-03-14T08:05:58;7.87;;;2.87;;
12312;SDS011;6220;53.580;9.758;2023-03-14T08:08:23;8.23;;;2.60;;
12312;SDS011;6220;53.580;9.758;2023-03-14T08:10:48;5.83;;;2.53;;
12312;SDS011;6220;53.580;9.758;2023-03-14T08:13:14;6.47;;;2.47;;
12312;SDS011;6220;53.580;9.758;2023-03-14T08:15:39;6.23;;;2.57;;
12312;SDS011;6220;53.580;9.758;2023-03-14T08:18:05;5.13;;;2.47;;
12312;SDS011;6220;53.580;9.758;2023-03-14T08:20:30;5.20;;;2.07;;
12312;SDS011;6220;53.580;9.758;2023-03-14T08:22:56;3.90;;;2.23;;
12312;SDS011;6220;53.580;9.758;2023-03-14T08:25:22;5.60;;;2.27;;
12312;SDS011;6220;53.580;9.758;2023-03-14T08:27:48;2.77;;;1.73;;
12312;SDS011;6220;53.580;9.758;2023-03-14T08:30:14;7.07;;;2.03;;
12312;SDS011;6220;53.580;9.758;2023-03-14T08:32:41;5.53;;;2.10;;
12312;SDS011;6220;53.580;9.758;2023-03-14T08:35:06;5.83;;;2.07;;
12312;SDS011;6220;53.580;9.758;2023-03-14T08:37:33;5.90;;;2.03;;
12312;SDS011;6220;53.580;9.758;2023-03-14T08:39:59;6.50;;;2.43;;
12312;SDS011;6220;53.580;9.758;2023-03-14T08:42:25;5.33;;;2.30;;
12312;SDS011;6220;53.580;9.758;2023-03-14T08:44:53;7.93;;;2.50;;
12312;SDS011;6220;53.580;9.758;2023-03-14T08:47:19;7.87;;;2.73;;
12312;SDS011;6220;53.580;9.758;2023-03-14T08:49:44;11.67;;;3.30;;
12312;SDS011;6220;53.580;9.758;2023-03-14T08:52:09;6.07;;;2.67;;
12312;SDS011;6220;53.580;9.758;2023-03-14T08:54:35;7.97;;;3.10;;
12312;SDS011;6220;53.580;9.758;2023-03-14T08:57:00;8.93;;;3.03;;
12312;SDS011;6220;53.580;9.758;2023-03-14T08:59:26;5.33;;;2.77;;
12312;SDS011;6220;53.580;9.758;2023-03-14T09:01:51;6.30;;;2.93;;
12312;SDS011;6220;53.580;9.758;2023-03-14T09:04:16;7.97;;;3.50;;
12312;SDS011;6220;53.580;9.758;2023-03-14T09:06:42;7.60;;;3.10;;
12312;SDS011;6220;53.580;9.758;2023-03-14T09:09:07;8.27;;;3.67;;
12312;SDS011;6220;53.580;9.758;2023-03-14T09:11:33;8.37;;;3.27;;
12312;SDS011;6220;53.580;9.758;2023-03-14T09:13:58;10.57;;;3.73;;
12312;SDS011;6220;53.580;9.758;2023-03-14T09:16:24;13.73;;;4.80;;
12312;SDS011;6220;53.580;9.758;2023-03-14T09:18:49;7.57;;;3.87;;
12312;SDS011;6220;53.580;9.758;2023-03-14T09:21:15;11.40;;;3.87;;
12312;SDS011;6220;53.580;9.758;2023-03-14T09:23:40;7.77;;;4.10;;
12312;SDS011;6220;53.580;9.758;2023-03-14T09:26:06;8.80;;;3.90;;
12312;SDS011;6220;53.580;9.758;2023-03-14T09:28:31;7.27;;;4.13;;
12312;SDS011;6220;53.580;9.758;2023-03-14T09:30:57;8.60;;;4.00;;
12312;SDS011;6220;53.580;9.758;2023-03-14T09:33:22;7.57;;;4.07;;
12312;SDS011;6220;53.580;9.758;2023-03-14T09:35:48;12.13;;;4.33;;
12312;SDS011;6220;53.580;9.758;2023-03-14T09:38:14;5.37;;;1.90;;
12312;SDS011;6220;53.580;9.758;2023-03-14T09:40:41;5.03;;;2.07;;
12312;SDS011;6220;53.580;9.758;2023-03-14T09:43:09;4.33;;;1.63;;
12312;SDS011;6220;53.580;9.758;2023-03-14T09:45:39;4.93;;;1.53;;
12312;SDS011;6220;53.580;9.758;2023-03-14T09:48:08;3.53;;;1.80;;
12312;SDS011;6220;53.580;9.758;2023-03-14T09:50:54;6.40;;;2.67;;
12312;SDS011;6220;53.580;9.758;2023-03-14T09:53:23;3.60;;;1.87;;
12312;SDS011;6220;53.580;9.758;2023-03-14T09:55:55;2.60;;;1.67;;
12312;SDS011;6220;53.580;9.758;2023-03-14T09:58:23;4.40;;;1.93;;
12312;SDS011;6220;53.580;9.758;2023-03-14T10:00:49;5.00;;;1.80;;
12312;SDS011;6220;53.580;9.758;2023-03-14T10:03:31;4.40;;;1.50;;
12312;SDS011;6220;53.580;9.758;2023-03-14T10:05:58;2.07;;;1.30;;
12312;SDS011;6220;53.580;9.758;2023-03-14T10:08:26;2.33;;;1.20;;
12312;SDS011;6220;53.580;9.758;2023-03-14T10:10:53;3.23;;;1.40;;
12312;SDS011;6220;53.580;9.758;2023-03-14T10:13:23;3.07;;;1.87;;
12312;SDS011;6220;53.580;9.758;2023-03-14T10:15:52;3.50;;;1.10;;
12312;SDS011;6220;53.580;9.758;2023-03-14T10:18:24;1.70;;;1.30;;
12312;SDS011;6220;53.580;9.758;2023-03-14T10:20:50;2.47;;;1.23;;
12312;SDS011;6220;53.580;9.758;2023-03-14T10:23:28;4.03;;;1.13;;
12312;SDS011;6220;53.580;9.758;2023-03-14T10:28:29;1.60;;;1.00;;
12312;SDS011;6220;53.580;9.758;2023-03-14T10:30:59;1.20;;;0.90;;
12312;SDS011;6220;53.580;9.758;2023-03-14T10:33:26;2.63;;;1.00;;
12312;SDS011;6220;53.580;9.758;2023-03-14T10:38:35;2.30;;;0.70;;
12312;SDS011;6220;53.580;9.758;2023-03-14T10:41:01;2.23;;;1.10;;
12312;SDS011;6220;53.580;9.758;2023-03-14T10:43:33;1.30;;;0.87;;
12312;SDS011;6220;53.580;9.758;2023-03-14T10:46:11;1.13;;;0.90;;
12312;SDS011;6220;53.580;9.758;2023-03-14T10:48:39;1.03;;;0.90;;
12312;SDS011;6220;53.580;9.758;2023-03-14T10:56:09;1.50;;;0.73;;
12312;SDS011;6220;53.580;9.758;2023-03-14T10:58:42;0.90;;;0.70;;
12312;SDS011;6220;53.580;9.758;2023-03-14T11:04:03;1.60;;;1.10;;
12312;SDS011;6220;53.580;9.758;2023-03-14T11:06:34;1.67;;;1.00;;
12312;SDS011;6220;53.580;9.758;2023-03-14T11:09:12;1.50;;;1.00;;
12312;SDS011;6220;53.580;9.758;2023-03-14T11:11:54;1.47;;;0.83;;
12312;SDS011;6220;53.580;9.758;2023-03-14T11:14:35;3.20;;;1.00;;
12312;SDS011;6220;53.580;9.758;2023-03-14T11:17:05;1.30;;;0.90;;
12312;SDS011;6220;53.580;9.758;2023-03-14T11:25:43;1.73;;;1.13;;
12312;SDS011;6220;53.580;9.758;2023-03-14T11:28:17;1.60;;;1.10;;
12312;SDS011;6220;53.580;9.758;2023-03-14T11:31:29;1.50;;;1.07;;
12312;SDS011;6220;53.580;9.758;2023-03-14T11:36:39;3.90;;;1.40;;
12312;SDS011;6220;53.580;9.758;2023-03-14T11:39:08;4.90;;;1.60;;
12312;SDS011;6220;53.580;9.758;2023-03-14T11:41:41;6.27;;;1.93;;
12312;SDS011;6220;53.580;9.758;2023-03-14T11:44:19;5.97;;;1.57;;
12312;SDS011;6220;53.580;9.758;2023-03-14T11:46:54;6.87;;;1.77;;
12312;SDS011;6220;53.580;9.758;2023-03-14T11:52:08;7.93;;;1.97;;
12312;SDS011;6220;53.580;9.758;2023-03-14T11:57:12;5.43;;;1.80;;
12312;SDS011;6220;53.580;9.758;2023-03-14T12:02:17;4.13;;;1.90;;
12312;SDS011;6220;53.580;9.758;2023-03-14T12:08:02;8.73;;;2.10;;
12312;SDS011;6220;53.580;9.758;2023-03-14T12:10:52;7.17;;;1.90;;
12312;SDS011;6220;53.580;9.758;2023-03-14T12:13:21;7.97;;;2.37;;
12312;SDS011;6220;53.580;9.758;2023-03-14T12:15:55;5.93;;;2.07;;
12312;SDS011;6220;53.580;9.758;2023-03-14T12:21:00;8.13;;;2.27;;
12312;SDS011;6220;53.580;9.758;2023-03-14T12:23:28;9.33;;;2.00;;
12312;SDS011;6220;53.580;9.758;2023-03-14T12:26:13;9.53;;;2.47;;
12312;SDS011;6220;53.580;9.758;2023-03-14T12:28:43;7.83;;;2.30;;
12312;SDS011;6220;53.580;9.758;2023-03-14T12:34:10;8.50;;;2.43;;
12312;SDS011;6220;53.580;9.758;2023-03-14T12:42:11;14.57;;;2.80;;
12312;SDS011;6220;53.580;9.758;2023-03-14T12:44:49;13.33;;;3.50;;
12312;SDS011;6220;53.580;9.758;2023-03-14T12:49:41;15.87;;;3.40;;
12312;SDS011;6220;53.580;9.758;2023-03-14T12:52:13;19.40;;;4.47;;
12312;SDS011;6220;53.580;9.758;2023-03-14T12:55:18;15.93;;;3.83;;
12312;SDS011;6220;53.580;9.758;2023-03-14T12:57:58;15.30;;;4.07;;
12312;SDS011;6220;53.580;9.758;2023-03-14T13:00:35;16.80;;;3.83;;
12312;SDS011;6220;53.580;9.758;2023-03-14T13:03:21;17.67;;;3.97;;
12312;SDS011;6220;53.580;9.758;2023-03-14T13:05:56;13.67;;;3.37;;
12312;SDS011;6220;53.580;9.758;2023-03-14T13:08:36;11.47;;;2.90;;
12312;SDS011;6220;53.580;9.758;2023-03-14T13:11:05;13.77;;;3.20;;
12312;SDS011;6220;53.580;9.758;2023-03-14T13:13:33;13.33;;;2.80;;
12312;SDS011;6220;53.580;9.758;2023-03-14T13:16:00;9.80;;;2.67;;
12312;SDS011;6220;53.580;9.758;2023-03-14T13:18:34;10.03;;;2.97;;
12312;SDS011;6220;53.580;9.758;2023-03-14T13:21:09;6.40;;;2.17;;
12312;SDS011;6220;53.580;9.758;2023-03-14T13:23:37;9.00;;;2.40;;
12312;SDS011;6220;53.580;9.758;2023-03-14T13:26:03;8.13;;;2.27;;
12312;SDS011;6220;53.580;9.758;2023-03-14T13:28:36;6.83;;;2.03;;
12312;SDS011;6220;53.580;9.758;2023-03-14T13:31:04;7.93;;;2.63;;
12312;SDS011;6220;53.580;9.758;2023-03-14T13:33:33;10.30;;;2.30;;
12312;SDS011;6220;53.580;9.758;2023-03-14T13:36:03;10.17;;;2.40;;
12312;SDS011;6220;53.580;9.758;2023-03-14T13:38:31;13.43;;;3.20;;
12312;SDS011;6220;53.580;9.758;2023-03-14T13:40:59;6.43;;;2.40;;
12312;SDS011;6220;53.580;9.758;2023-03-14T13:46:21;7.70;;;2.30;;
12312;SDS011;6220;53.580;9.758;2023-03-14T13:51:18;12.70;;;2.90;;
12312;SDS011;6220;53.580;9.758;2023-03-14T13:53:48;11.97;;;2.53;;
12312;SDS011;6220;53.580;9.758;2023-03-14T13:56:18;9.80;;;2.80;;
12312;SDS011;6220;53.580;9.758;2023-03-14T13:58:48;11.93;;;2.73;;
12312;SDS011;6220;53.580;9.758;2023-03-14T14:03:52;9.63;;;2.53;;
12312;SDS011;6220;53.580;9.758;2023-03-14T14:06:31;9.27;;;2.77;;
12312;SDS011;6220;53.580;9.758;2023-03-14T14:09:02;7.43;;;2.00;;
12312;SDS011;6220;53.580;9.758;2023-03-14T14:12:13;9.53;;;2.60;;
12312;SDS011;6220;53.580;9.758;2023-03-14T14:15:13;11.00;;;2.07;;
12312;SDS011;6220;53.580;9.758;2023-03-14T14:22:58;11.63;;;2.47;;
12312;SDS011;6220;53.580;9.758;2023-03-14T14:25:27;11.97;;;2.60;;
12312;SDS011;6220;53.580;9.758;2023-03-14T14:27:53;11.63;;;3.10;;
12312;SDS011;6220;53.580;9.758;2023-03-14T14:32:45;8.47;;;2.80;;
12312;SDS011;6220;53.580;9.758;2023-03-14T14:35:33;5.07;;;2.23;;
12312;SDS011;6220;53.580;9.758;2023-03-14T14:37:57;7.93;;;2.33;;
12312;SDS011;6220;53.580;9.758;2023-03-14T14:40:24;9.37;;;2.07;;
12312;SDS011;6220;53.580;9.758;2023-03-14T14:42:51;6.93;;;2.30;;
12312;SDS011;6220;53.580;9.758;2023-03-14T14:45:17;6.30;;;2.20;;
12312;SDS011;6220;53.580;9.758;2023-03-14T14:48:18;6.73;;;1.83;;
12312;SDS011;6220;53.580;9.758;2023-03-14T14:55:49;10.57;;;2.53;;
12312;SDS011;6220;53.580;9.758;2023-03-14T15:00:53;8.73;;;2.20;;
12312;SDS011;6220;53.580;9.758;2023-03-14T15:03:41;8.27;;;2.20;;
12312;SDS011;6220;53.580;9.758;2023-03-14T15:06:07;8.87;;;2.30;;
12312;SDS011;6220;53.580;9.758;2023-03-14T15:08:33;9.73;;;2.73;;
12312;SDS011;6220;53.580;9.758;2023-03-14T15:10:59;11.83;;;2.60;;
12312;SDS011;6220;53.580;9.758;2023-03-14T15:13:24;15.37;;;3.07;;
12312;SDS011;6220;53.580;9.758;2023-03-14T15:15:50;7.33;;;2.43;;
12312;SDS011;6220;53.580;9.758;2023-03-14T15:18:25;11.57;;;2.63;;
12312;SDS011;6220;53.580;9.758;2023-03-14T15:20:52;9.27;;;2.67;;
12312;SDS011;6220;53.580;9.758;2023-03-14T15:23:19;12.83;;;2.90;;
12312;SDS011;6220;53.580;9.758;2023-03-14T15:25:45;8.93;;;2.40;;
12312;SDS011;6220;53.580;9.758;2023-03-14T15:30:46;11.83;;;2.50;;
12312;SDS011;6220;53.580;9.758;2023-03-14T15:33:12;9.80;;;2.40;;
12312;SDS011;6220;53.580;9.758;2023-03-14T15:35:38;8.20;;;2.43;;
12312;SDS011;6220;53.580;9.758;2023-03-14T15:38:04;7.57;;;2.43;;
12312;SDS011;6220;53.580;9.758;2023-03-14T15:40:30;8.17;;;2.50;;
12312;SDS011;6220;53.580;9.758;2023-03-14T15:42:55;8.73;;;2.67;;
12312;SDS011;6220;53.580;9.758;2023-03-14T15:45:21;8.77;;;2.63;;
12312;SDS011;6220;53.580;9.758;2023-03-14T15:47:46;6.40;;;2.20;;
12312;SDS011;6220;53.580;9.758;2023-03-14T15:50:11;6.30;;;2.20;;
12312;SDS011;6220;53.580;9.758;2023-03-14T15:52:37;7.77;;;2.60;;
12312;SDS011;6220;53.580;9.758;2023-03-14T15:55:03;6.83;;;2.30;;
12312;SDS011;6220;53.580;9.758;2023-03-14T15:57:28;8.50;;;2.27;;
12312;SDS011;6220;53.580;9.758;2023-03-14T15:59:55;7.77;;;2.63;;
12312;SDS011;6220;53.580;9.758;2023-03-14T16:02:20;13.37;;;3.17;;
12312;SDS011;6220;53.580;9.758;2023-03-14T16:04:46;9.50;;;2.13;;
12312;SDS011;6220;53.580;9.758;2023-03-14T16:07:11;5.73;;;1.93;;
12312;SDS011;6220;53.580;9.758;2023-03-14T16:09:37;5.30;;;1.90;;
12312;SDS011;6220;53.580;9.758;2023-03-14T16:12:02;9.60;;;2.53;;
12312;SDS011;6220;53.580;9.758;2023-03-14T16:14:29;12.00;;;2.40;;
12312;SDS011;6220;53.580;9.758;2023-03-14T16:16:55;8.27;;;2.40;;
12312;SDS011;6220;53.580;9.758;2023-03-14T16:19:23;6.93;;;2.10;;
12312;SDS011;6220;53.580;9.758;2023-03-14T16:21:55;8.57;;;2.80;;
12312;SDS011;6220;53.580;9.758;2023-03-14T16:24:21;11.83;;;2.33;;
12312;SDS011;6220;53.580;9.758;2023-03-14T16:26:46;11.53;;;2.43;;